Time;durP1;ratioP1;P1;durP2;ratioP2;P2;SDS_P1;SDS_P2;PMS_P1;PMS_P2;Temp;Humidity;BMP_temperature;BMP_pressure;BME280_temperature;BME280_humidity;BME280_pressure;Samples;Min_cycle;Max_cycle;Signal;HPM_P1;HPM_P2
2023/05/14 00:00:25;;;;;;;7.57;6.55;;;11.70;99.90;;;;;;5089120;28;20024;-42
2023/05/14 00:02:51;;;;;;;5.75;5.15;;;11.70;99.90;;;;;;5087566;28;20023;-43
2023/05/14 00:05:17;;;;;;;7.25;5.88;;;11.60;99.90;;;;;;5088781;28;20043;-43
2023/05/14 00:07:45;;;;;;;8.75;6.07;;;11.60;99.90;;;;;;5088023;28;20559;-42
2023/05/14 00:10:11;;;;;;;8.25;6.03;;;11.50;99.90;;;;;;5087447;28;20393;-45
2023/05/14 00:12:40;;;;;;;6.43;5.70;;;11.40;99.90;;;;;;5087698;28;20111;-43
2023/05/14 00:15:08;;;;;;;6.10;5.50;;;11.40;99.90;;;;;;5086987;28;20058;-45
2023/05/14 00:17:38;;;;;;;6.82;5.70;;;11.30;99.90;;;;;;5084137;28;20574;-43
2023/05/14 00:20:10;;;;;;;7.73;5.80;;;11.30;99.90;;;;;;5088596;28;20123;-43
2023/05/14 00:22:36;;;;;;;8.93;6.22;;;11.20;99.90;;;;;;5085267;28;20274;-42
2023/05/14 00:25:04;;;;;;;10.38;7.00;;;11.10;99.90;;;;;;5088354;28;20074;-42
2023/05/14 00:27:30;;;;;;;10.15;6.93;;;11.10;99.90;;;;;;5086341;28;20024;-43
2023/05/14 00:29:56;;;;;;;10.68;7.03;;;11.00;99.90;;;;;;5086576;28;20016;-45
2023/05/14 00:32:25;;;;;;;9.25;6.30;;;11.00;99.90;;;;;;5087102;28;20012;-43
2023/05/14 00:34:53;;;;;;;9.43;7.47;;;10.90;99.90;;;;;;5086408;28;20028;-43
2023/05/14 00:37:21;;;;;;;8.55;6.63;;;10.90;99.90;;;;;;5089064;28;20051;-43
2023/05/14 00:39:50;;;;;;;9.20;6.78;;;11.00;99.90;;;;;;5087981;28;20028;-45
2023/05/14 00:42:16;;;;;;;12.50;7.38;;;10.90;99.90;;;;;;5088323;28;20047;-43
2023/05/14 00:44:44;;;;;;;8.23;7.30;;;10.90;99.90;;;;;;5088988;28;20020;-45
2023/05/14 00:47:13;;;;;;;10.82;7.82;;;10.90;99.90;;;;;;5088159;28;20028;-45
2023/05/14 00:49:40;;;;;;;9.07;7.43;;;10.90;99.90;;;;;;5088696;28;20073;-43
2023/05/14 00:52:06;;;;;;;8.75;6.63;;;10.90;99.90;;;;;;5087603;28;20012;-46
2023/05/14 00:54:35;;;;;;;9.00;7.13;;;10.90;99.90;;;;;;5088835;28;20034;-44
2023/05/14 00:57:02;;;;;;;8.52;7.25;;;10.80;99.90;;;;;;5088921;28;20062;-42
2023/05/14 00:59:28;;;;;;;10.43;7.90;;;10.80;99.90;;;;;;5088271;28;20020;-42
2023/05/14 01:01:54;;;;;;;8.65;7.20;;;10.80;99.90;;;;;;5087872;28;20023;-42
2023/05/14 01:04:23;;;;;;;8.05;6.72;;;10.70;99.90;;;;;;5087994;28;20023;-45
2023/05/14 01:06:50;;;;;;;9.45;8.05;;;10.80;99.90;;;;;;5089752;28;20066;-44
2023/05/14 01:09:41;;;;;;;9.63;7.38;;;10.80;99.90;;;;;;5091799;28;20473;-49
2023/05/14 01:12:19;;;;;;;13.48;7.93;;;10.70;99.90;;;;;;5090942;28;20020;-42
2023/05/14 01:15:02;;;;;;;12.43;8.13;;;10.70;99.90;;;;;;5090995;28;20123;-42
2023/05/14 01:17:31;;;;;;;10.80;7.10;;;10.70;99.90;;;;;;5092944;28;20486;-42
2023/05/14 01:19:58;;;;;;;8.77;7.15;;;10.70;99.90;;;;;;5108410;28;20035;-42
2023/05/14 01:22:24;;;;;;;7.75;6.47;;;10.70;99.90;;;;;;5091366;28;20465;-42
2023/05/14 01:24:50;;;;;;;9.27;7.15;;;10.60;99.90;;;;;;5090705;28;20030;-42
2023/05/14 01:27:51;;;;;;;10.95;7.82;;;10.50;99.90;;;;;;5090571;28;20027;-42
2023/05/14 01:30:22;;;;;;;8.98;7.70;;;10.70;99.90;;;;;;5075384;28;20227;-42
2023/05/14 01:32:53;;;;;;;7.90;7.10;;;10.60;99.90;;;;;;5092284;28;20020;-42
2023/05/14 01:35:23;;;;;;;9.30;7.63;;;10.60;99.90;;;;;;5090555;28;20389;-41
2023/05/14 01:37:49;;;;;;;9.53;7.23;;;10.60;99.90;;;;;;5093006;28;20069;-41
2023/05/14 01:40:18;;;;;;;9.95;7.38;;;10.60;99.90;;;;;;5090028;28;20016;-41
2023/05/14 01:42:44;;;;;;;9.32;7.55;;;10.50;99.90;;;;;;5091964;28;20024;-42
2023/05/14 01:45:10;;;;;;;9.55;7.00;;;10.50;99.90;;;;;;5090259;28;20043;-41
2023/05/14 01:47:37;;;;;;;8.27;7.00;;;10.50;99.90;;;;;;5092422;28;20038;-41
2023/05/14 01:50:03;;;;;;;7.82;6.90;;;10.40;99.90;;;;;;5089835;28;20020;-45
2023/05/14 01:52:29;;;;;;;9.20;6.60;;;10.40;99.90;;;;;;5091837;28;20020;-41
2023/05/14 01:54:57;;;;;;;10.00;7.10;;;10.30;99.90;;;;;;5089781;28;20057;-40
2023/05/14 01:57:22;;;;;;;10.55;7.55;;;10.30;99.90;;;;;;5090553;28;20386;-40
2023/05/14 01:59:48;;;;;;;8.43;6.80;;;10.30;99.90;;;;;;5090866;28;20024;-41
2023/05/14 02:02:13;;;;;;;11.63;7.88;;;10.30;99.90;;;;;;5091231;28;20031;-41
2023/05/14 02:04:39;;;;;;;8.43;7.05;;;10.30;99.90;;;;;;5091926;28;20497;-41
2023/05/14 02:07:05;;;;;;;10.07;8.23;;;10.30;99.90;;;;;;5089550;28;20016;-42
2023/05/14 02:09:31;;;;;;;9.63;7.05;;;10.30;99.90;;;;;;5091919;28;20107;-41
2023/05/14 02:11:57;;;;;;;9.38;7.10;;;10.30;99.90;;;;;;5090947;28;20043;-43
2023/05/14 02:14:23;;;;;;;8.30;7.28;;;10.20;99.90;;;;;;5091556;28;20272;-42
2023/05/14 02:16:50;;;;;;;10.45;7.85;;;10.20;99.90;;;;;;5091600;28;20074;-42
2023/05/14 02:19:15;;;;;;;9.60;7.75;;;10.10;99.90;;;;;;5090079;28;20043;-43
2023/05/14 02:21:41;;;;;;;9.38;7.72;;;10.20;99.90;;;;;;5091532;28;20059;-43
2023/05/14 02:24:07;;;;;;;9.70;7.50;;;10.10;99.90;;;;;;5091065;28;20107;-42
2023/05/14 02:26:33;;;;;;;11.65;7.50;;;10.20;99.90;;;;;;5091245;28;20028;-43
2023/05/14 02:28:59;;;;;;;9.57;7.57;;;10.20;99.90;;;;;;5090709;28;20016;-42
2023/05/14 02:31:25;;;;;;;10.32;7.97;;;10.10;99.90;;;;;;5090626;28;20040;-43
2023/05/14 02:33:51;;;;;;;10.82;8.00;;;10.10;99.90;;;;;;5090763;28;20012;-42
2023/05/14 02:36:16;;;;;;;9.85;8.10;;;10.00;99.90;;;;;;5091260;28;20016;-42
2023/05/14 02:38:42;;;;;;;8.95;7.95;;;10.00;99.90;;;;;;5089161;28;20051;-42
2023/05/14 02:41:07;;;;;;;10.40;8.13;;;10.00;99.90;;;;;;5090479;28;20028;-42
2023/05/14 02:43:33;;;;;;;9.27;8.07;;;10.00;99.90;;;;;;5090847;28;20059;-42
2023/05/14 02:45:58;;;;;;;9.50;7.80;;;9.90;99.90;;;;;;5089788;28;20038;-44
2023/05/14 02:48:24;;;;;;;11.43;9.25;;;9.90;99.90;;;;;;5083548;28;20115;-43
2023/05/14 02:50:51;;;;;;;10.48;8.32;;;9.80;99.90;;;;;;5095406;28;20019;-41
2023/05/14 02:53:17;;;;;;;10.93;8.07;;;9.80;99.90;;;;;;5090612;28;20315;-45
2023/05/14 02:55:42;;;;;;;8.70;7.50;;;9.80;99.90;;;;;;5105109;28;20439;-42
2023/05/14 02:58:09;;;;;;;11.65;9.07;;;9.60;99.90;;;;;;5090164;28;20024;-42
2023/05/14 03:00:34;;;;;;;11.43;8.27;;;9.60;99.90;;;;;;5105352;28;20028;-42
2023/05/14 03:03:00;;;;;;;13.45;9.10;;;9.50;99.90;;;;;;5110241;28;20396;-41
2023/05/14 03:05:25;;;;;;;13.57;9.10;;;9.50;99.90;;;;;;5110856;28;20028;-42
2023/05/14 03:07:52;;;;;;;11.38;8.85;;;9.50;99.90;;;;;;5110623;28;20015;-42
2023/05/14 03:10:18;;;;;;;8.50;7.55;;;9.40;99.90;;;;;;5110900;28;20023;-41
2023/05/14 03:12:44;;;;;;;12.15;9.15;;;9.40;99.90;;;;;;5110001;28;20023;-41
2023/05/14 03:15:10;;;;;;;9.38;8.15;;;9.40;99.90;;;;;;5097662;28;20078;-43
2023/05/14 03:17:35;;;;;;;10.48;8.82;;;9.40;99.90;;;;;;5096377;28;20063;-42
2023/05/14 03:20:02;;;;;;;14.68;11.73;;;9.40;99.90;;;;;;5110203;28;20076;-42
2023/05/14 03:22:27;;;;;;;13.60;10.55;;;9.40;99.90;;;;;;5110067;27;20064;-42
2023/05/14 03:24:53;;;;;;;10.82;9.07;;;9.50;99.90;;;;;;5110373;28;20342;-42
2023/05/14 03:27:18;;;;;;;13.02;9.40;;;9.50;99.90;;;;;;5110502;28;20030;-41
2023/05/14 03:29:44;;;;;;;10.70;8.98;;;9.40;99.90;;;;;;5109208;28;20024;-42
2023/05/14 03:32:09;;;;;;;12.13;9.43;;;9.40;99.90;;;;;;5097277;28;20060;-42
2023/05/14 03:34:35;;;;;;;12.82;9.30;;;9.50;99.90;;;;;;5090033;28;20032;-44
2023/05/14 03:37:05;;;;;;;11.23;9.65;;;9.50;99.90;;;;;;5099572;28;20078;-42
2023/05/14 03:39:31;;;;;;;13.68;10.68;;;9.50;99.90;;;;;;5109000;28;20235;-41
2023/05/14 03:41:57;;;;;;;13.95;9.98;;;9.50;99.90;;;;;;5099671;28;20355;-42
2023/05/14 03:44:26;;;;;;;12.60;9.98;;;9.50;99.90;;;;;;5105633;28;20028;-42
2023/05/14 03:46:56;;;;;;;13.95;10.52;;;9.50;99.90;;;;;;5087813;28;20473;-43
2023/05/14 03:49:24;;;;;;;13.52;8.75;;;9.50;99.90;;;;;;5100895;28;20312;-42
2023/05/14 03:51:54;;;;;;;12.82;9.90;;;9.50;99.90;;;;;;5108132;28;20080;-44
2023/05/14 03:54:20;;;;;;;12.10;9.13;;;9.40;99.90;;;;;;5110102;28;20393;-42
2023/05/14 03:56:48;;;;;;;10.57;9.43;;;9.40;99.90;;;;;;5110352;28;20561;-51
2023/05/14 03:59:16;;;;;;;11.73;9.43;;;9.40;99.90;;;;;;5110052;28;20063;-52
2023/05/14 04:01:45;;;;;;;12.18;9.48;;;9.40;99.90;;;;;;5089720;28;20032;-50
2023/05/14 04:04:10;;;;;;;10.98;9.25;;;9.50;99.90;;;;;;5087298;28;20024;-50
2023/05/14 04:06:39;;;;;;;12.75;9.32;;;9.40;99.90;;;;;;5089727;28;20038;-50
2023/05/14 04:09:05;;;;;;;10.70;8.98;;;9.40;99.90;;;;;;5092182;28;20012;-51
2023/05/14 04:11:33;;;;;;;12.25;9.88;;;9.40;99.90;;;;;;5089998;28;20031;-52
2023/05/14 04:14:02;;;;;;;10.70;9.07;;;9.40;99.90;;;;;;5091749;28;20020;-48
2023/05/14 04:16:28;;;;;;;16.77;9.80;;;9.40;99.90;;;;;;5090119;28;20024;-48
2023/05/14 04:18:56;;;;;;;14.57;12.15;;;9.50;99.90;;;;;;5086632;28;20024;-47
2023/05/14 04:21:22;;;;;;;15.38;11.48;;;9.50;99.90;;;;;;5087599;28;20032;-49
2023/05/14 04:23:51;;;;;;;13.57;10.57;;;9.50;99.90;;;;;;5096416;28;20024;-50
2023/05/14 04:26:20;;;;;;;14.73;10.75;;;9.60;99.90;;;;;;5094541;28;20520;-51
2023/05/14 04:28:48;;;;;;;15.27;9.85;;;9.60;99.90;;;;;;5092785;28;20107;-50
2023/05/14 04:31:15;;;;;;;12.82;10.75;;;9.60;99.90;;;;;;5088029;28;20217;-47
2023/05/14 04:33:43;;;;;;;13.32;10.82;;;9.60;99.90;;;;;;5090665;28;20478;-50
2023/05/14 04:36:08;;;;;;;11.60;9.75;;;9.60;99.90;;;;;;5094633;28;20052;-50
2023/05/14 04:38:34;;;;;;;11.15;9.90;;;9.60;99.90;;;;;;5092822;28;20055;-47
2023/05/14 04:40:59;;;;;;;11.82;10.02;;;9.60;99.90;;;;;;5086105;28;20021;-50
2023/05/14 04:43:25;;;;;;;11.65;9.15;;;9.60;99.90;;;;;;5092656;28;20023;-47
2023/05/14 04:45:51;;;;;;;12.93;9.60;;;9.60;99.90;;;;;;5092260;28;20431;-48
2023/05/14 04:48:17;;;;;;;13.27;10.30;;;9.60;99.90;;;;;;5080658;28;20024;-48
2023/05/14 04:50:43;;;;;;;12.98;10.13;;;9.70;99.90;;;;;;5065807;28;20115;-50
2023/05/14 04:53:09;;;;;;;12.30;9.93;;;9.60;99.90;;;;;;5041281;28;20021;-48
2023/05/14 04:55:34;;;;;;;10.95;9.10;;;9.70;99.90;;;;;;5044267;28;20032;-50
2023/05/14 04:58:00;;;;;;;11.20;9.60;;;9.70;99.90;;;;;;5041566;28;20375;-47
2023/05/14 05:00:25;;;;;;;13.30;9.65;;;9.70;99.90;;;;;;5060835;28;20103;-47
2023/05/14 05:02:51;;;;;;;10.45;9.43;;;9.80;99.90;;;;;;5060738;28;20593;-48
2023/05/14 05:05:16;;;;;;;12.80;10.13;;;9.80;99.90;;;;;;5061153;28;20025;-47
2023/05/14 05:07:42;;;;;;;13.57;10.00;;;9.80;99.90;;;;;;5059488;28;20391;-47
2023/05/14 05:10:08;;;;;;;11.35;9.80;;;9.90;99.90;;;;;;5064966;28;20021;-47
2023/05/14 05:12:34;;;;;;;12.25;9.68;;;10.00;99.90;;;;;;5067967;28;20032;-47
2023/05/14 05:14:59;;;;;;;14.93;11.15;;;10.10;99.90;;;;;;5068276;28;20025;-48
2023/05/14 05:17:25;;;;;;;15.30;11.13;;;10.20;99.90;;;;;;5068501;28;20051;-51
2023/05/14 05:19:51;;;;;;;11.80;9.85;;;10.30;99.90;;;;;;5068158;28;20100;-49
2023/05/14 05:22:18;;;;;;;11.80;9.60;;;10.50;99.90;;;;;;5067503;28;20029;-48
2023/05/14 05:24:44;;;;;;;12.00;10.05;;;10.60;99.90;;;;;;5067534;28;20036;-48
2023/05/14 05:27:10;;;;;;;12.32;9.80;;;10.70;99.90;;;;;;5068032;28;20028;-50
2023/05/14 05:29:35;;;;;;;12.85;8.82;;;10.80;99.90;;;;;;5068572;28;20031;-49
2023/05/14 05:32:01;;;;;;;10.32;8.77;;;10.90;99.90;;;;;;5048850;28;20016;-48
2023/05/14 05:34:27;;;;;;;10.95;9.20;;;11.10;99.90;;;;;;5068062;28;20035;-48
2023/05/14 05:36:53;;;;;;;12.15;9.82;;;11.20;99.90;;;;;;5067729;28;20138;-52
2023/05/14 05:39:18;;;;;;;11.32;9.20;;;11.30;99.90;;;;;;5067368;28;20099;-51
2023/05/14 05:41:44;;;;;;;10.05;9.00;;;11.40;99.90;;;;;;5067399;28;20108;-51
2023/05/14 05:44:10;;;;;;;9.30;8.30;;;11.60;99.90;;;;;;5049907;28;20024;-48
2023/05/14 05:46:36;;;;;;;10.80;9.15;;;11.80;99.90;;;;;;5067795;28;20497;-49
2023/05/14 05:49:01;;;;;;;12.93;8.68;;;11.90;99.90;;;;;;5105477;28;20443;-50
2023/05/14 05:51:27;;;;;;;9.48;8.27;;;12.00;99.90;;;;;;5108212;28;20028;-52
2023/05/14 05:53:52;;;;;;;12.73;8.73;;;12.10;99.90;;;;;;5109783;28;20019;-52
2023/05/14 05:56:18;;;;;;;10.85;8.35;;;12.20;99.90;;;;;;5106504;28;20023;-52
2023/05/14 05:58:44;;;;;;;10.02;8.20;;;12.30;99.90;;;;;;5091426;28;20390;-49
2023/05/14 06:01:09;;;;;;;8.80;7.65;;;12.50;99.90;;;;;;5106559;28;20041;-49
2023/05/14 06:03:35;;;;;;;9.65;8.60;;;12.60;99.90;;;;;;5091058;28;20095;-49
2023/05/14 06:06:01;;;;;;;8.65;7.43;;;12.80;99.90;;;;;;5107666;28;20051;-52
2023/05/14 06:08:27;;;;;;;11.88;8.90;;;13.00;99.90;;;;;;5091236;28;20166;-49
2023/05/14 06:10:53;;;;;;;10.77;8.75;;;13.20;99.90;;;;;;5091235;28;20393;-51
2023/05/14 06:13:19;;;;;;;10.00;7.88;;;13.30;99.90;;;;;;5110554;28;20023;-51
2023/05/14 06:15:44;;;;;;;7.93;7.05;;;13.40;99.90;;;;;;5110628;28;20031;-49
2023/05/14 06:18:10;;;;;;;8.00;7.20;;;13.60;99.90;;;;;;5111664;28;20042;-48
2023/05/14 06:20:36;;;;;;;10.45;7.55;;;13.70;99.90;;;;;;5099098;28;20021;-48
2023/05/14 06:23:01;;;;;;;8.45;7.07;;;13.80;99.90;;;;;;5090669;28;20028;-49
2023/05/14 06:25:27;;;;;;;9.52;8.10;;;14.00;99.90;;;;;;5098274;28;20036;-51
2023/05/14 06:27:53;;;;;;;13.40;7.68;;;14.10;99.90;;;;;;5089555;28;20032;-52
2023/05/14 06:30:19;;;;;;;8.10;7.30;;;14.10;99.90;;;;;;5104907;28;20070;-52
2023/05/14 06:32:44;;;;;;;7.47;6.72;;;14.30;99.90;;;;;;5111181;28;20019;-49
2023/05/14 06:35:10;;;;;;;8.10;7.30;;;14.40;99.90;;;;;;5111289;28;20400;-49
2023/05/14 06:37:35;;;;;;;7.68;6.88;;;14.40;99.90;;;;;;5111432;28;20496;-51
2023/05/14 06:40:02;;;;;;;9.18;7.03;;;14.50;99.90;;;;;;5092565;28;20032;-51
2023/05/14 06:42:28;;;;;;;8.68;7.38;;;14.50;99.90;;;;;;5111038;28;20094;-52
2023/05/14 06:44:54;;;;;;;11.65;7.28;;;14.50;99.90;;;;;;5110259;28;20153;-47
2023/05/14 06:47:20;;;;;;;7.03;5.97;;;14.60;99.90;;;;;;5111057;28;20023;-47
2023/05/14 06:49:45;;;;;;;8.95;7.72;;;14.60;99.90;;;;;;5094820;28;20023;-48
2023/05/14 06:52:11;;;;;;;9.38;7.30;;;14.50;99.90;;;;;;5099757;28;20380;-47
2023/05/14 06:54:37;;;;;;;7.05;6.45;;;14.50;99.90;;;;;;5099100;28;20017;-48
2023/05/14 06:57:02;;;;;;;7.25;6.30;;;14.50;99.90;;;;;;5088909;28;20147;-49
2023/05/14 06:59:28;;;;;;;7.65;6.88;;;14.50;99.90;;;;;;5093983;28;20557;-48
2023/05/14 07:01:54;;;;;;;7.30;6.55;;;14.40;99.90;;;;;;5099339;28;20501;-48
2023/05/14 07:04:19;;;;;;;9.02;6.95;;;14.30;99.90;;;;;;5092466;28;20422;-47
2023/05/14 07:06:45;;;;;;;7.07;6.38;;;14.30;99.90;;;;;;5110796;28;20115;-48
2023/05/14 07:09:10;;;;;;;7.65;6.85;;;14.30;99.90;;;;;;5110683;28;20096;-48
2023/05/14 07:11:36;;;;;;;11.52;6.57;;;14.40;99.90;;;;;;5090000;28;20075;-47
2023/05/14 07:14:01;;;;;;;9.18;7.25;;;14.40;99.90;;;;;;5098276;28;20040;-47
2023/05/14 07:16:27;;;;;;;8.18;7.20;;;14.50;99.90;;;;;;5110537;28;20054;-47
2023/05/14 07:18:53;;;;;;;11.52;7.95;;;14.60;99.90;;;;;;5106152;28;20100;-51
2023/05/14 07:21:18;;;;;;;7.75;6.43;;;14.60;99.90;;;;;;5089365;28;20567;-47
2023/05/14 07:23:44;;;;;;;10.13;5.93;;;14.80;99.90;;;;;;5104391;28;20028;-47
2023/05/14 07:26:10;;;;;;;7.03;6.18;;;14.90;99.90;;;;;;5095276;28;20025;-47
2023/05/14 07:28:35;;;;;;;8.07;6.40;;;15.00;99.90;;;;;;5089782;28;20032;-47
2023/05/14 07:31:03;;;;;;;10.95;6.20;;;15.10;99.90;;;;;;5106256;28;20023;-48
2023/05/14 07:33:29;;;;;;;6.95;5.70;;;15.20;99.90;;;;;;5110264;28;20099;-48
2023/05/14 07:35:54;;;;;;;11.73;6.70;;;15.40;99.90;;;;;;5110145;28;20098;-47
2023/05/14 07:38:20;;;;;;;7.18;5.70;;;15.50;99.90;;;;;;5098226;28;20114;-49
2023/05/14 07:40:46;;;;;;;7.22;5.78;;;15.60;99.90;;;;;;5090022;28;20040;-51
2023/05/14 07:43:11;;;;;;;7.47;5.82;;;15.70;99.90;;;;;;5107410;28;20499;-48
2023/05/14 07:45:38;;;;;;;6.95;5.88;;;15.90;99.90;;;;;;5105549;28;20028;-50
2023/05/14 07:48:04;;;;;;;10.15;6.60;;;16.10;99.90;;;;;;5109933;28;20063;-51
2023/05/14 07:50:30;;;;;;;7.18;5.60;;;16.30;99.90;;;;;;5104640;28;20024;-48
2023/05/14 07:52:56;;;;;;;7.78;5.80;;;16.50;99.90;;;;;;5092087;28;20043;-48
2023/05/14 07:55:22;;;;;;;6.75;5.68;;;16.90;99.90;;;;;;5096146;28;20059;-51
2023/05/14 07:57:48;;;;;;;9.70;5.90;;;17.20;99.90;;;;;;5088797;28;20019;-48
2023/05/14 08:00:15;;;;;;;5.65;5.13;;;17.50;99.90;;;;;;5095450;28;20043;-48
2023/05/14 08:02:41;;;;;;;5.65;5.05;;;17.80;99.90;;;;;;5094266;28;20024;-48
2023/05/14 08:05:07;;;;;;;6.05;4.80;;;18.20;99.90;;;;;;5094131;28;20031;-51
2023/05/14 08:07:33;;;;;;;6.63;5.15;;;18.30;98.10;;;;;;5093935;28;20028;-48
2023/05/14 08:09:59;;;;;;;5.85;4.45;;;18.40;97.80;;;;;;5088974;28;20016;-51
2023/05/14 08:12:25;;;;;;;6.38;5.00;;;18.60;97.00;;;;;;5088562;28;20031;-51
2023/05/14 08:14:54;;;;;;;8.13;5.82;;;18.90;96.80;;;;;;5091395;28;20024;-48
2023/05/14 08:17:20;;;;;;;6.63;4.80;;;19.10;95.70;;;;;;5093531;28;20506;-49
2023/05/14 08:19:45;;;;;;;8.57;4.95;;;19.50;95.30;;;;;;5092328;28;20103;-51
2023/05/14 08:22:11;;;;;;;8.07;4.72;;;19.90;93.80;;;;;;5098038;28;20130;-48
2023/05/14 08:24:37;;;;;;;5.35;4.85;;;20.50;95.10;;;;;;5107149;28;20397;-48
2023/05/14 08:27:03;;;;;;;7.45;4.97;;;20.90;93.70;;;;;;5109313;27;20023;-46
2023/05/14 08:29:29;;;;;;;5.75;4.60;;;21.50;93.80;;;;;;5109272;28;20485;-49
2023/05/14 08:31:55;;;;;;;4.95;4.47;;;22.70;90.30;;;;;;5100261;28;20051;-49
2023/05/14 08:34:21;;;;;;;5.68;4.40;;;24.00;85.40;;;;;;5109301;28;20024;-49
2023/05/14 08:36:47;;;;;;;6.22;4.00;;;24.90;77.60;;;;;;5107649;28;20051;-49
2023/05/14 08:39:13;;;;;;;8.38;4.07;;;25.20;75.40;;;;;;5091056;28;20113;-46
2023/05/14 08:41:39;;;;;;;6.53;4.38;;;25.00;71.40;;;;;;5092332;28;20038;-46
2023/05/14 08:44:13;;;;;;;4.80;4.30;;;24.70;70.60;;;;;;5109250;28;20027;-51
2023/05/14 08:46:40;;;;;;;5.32;4.22;;;24.80;71.30;;;;;;5103859;28;20024;-46
2023/05/14 08:49:27;;;;;;;6.13;4.07;;;25.70;70.40;;;;;;5082558;28;20016;-47
2023/05/14 08:51:53;;;;;;;5.53;4.35;;;26.50;71.50;;;;;;5081056;28;20027;-50
2023/05/14 08:54:22;;;;;;;4.20;3.80;;;26.40;67.70;;;;;;5098790;28;20085;-50
2023/05/14 08:56:50;;;;;;;7.47;3.50;;;27.20;66.30;;;;;;5082341;28;20028;-50
2023/05/14 08:59:16;;;;;;;5.45;4.20;;;28.00;62.20;;;;;;5089934;28;20024;-51
2023/05/14 09:01:51;;;;;;;3.63;3.33;;;28.60;57.50;;;;;;5090288;28;20034;-51
2023/05/14 09:04:20;;;;;;;4.35;3.95;;;28.00;56.60;;;;;;5108793;28;20485;-49
2023/05/14 09:06:48;;;;;;;4.72;4.28;;;27.10;57.50;;;;;;5094131;28;20082;-49
2023/05/14 09:09:14;;;;;;;4.75;3.85;;;26.00;57.50;;;;;;5102789;28;20020;-49
2023/05/14 09:11:41;;;;;;;5.82;4.15;;;25.10;63.20;;;;;;5107886;28;20077;-47
2023/05/14 09:14:06;;;;;;;6.78;4.50;;;24.70;63.40;;;;;;5107472;28;20091;-48
2023/05/14 09:16:33;;;;;;;7.10;4.13;;;24.10;62.80;;;;;;5100025;28;20107;-51
2023/05/14 09:18:59;;;;;;;6.97;4.07;;;23.90;66.20;;;;;;5109006;28;20414;-51
2023/05/14 09:21:26;;;;;;;5.05;4.03;;;24.40;65.00;;;;;;5106011;28;20058;-51
2023/05/14 09:23:55;;;;;;;6.15;3.92;;;25.20;63.60;;;;;;5084918;28;20047;-52
2023/05/14 09:26:27;;;;;;;4.53;3.88;;;25.80;62.50;;;;;;5103462;28;20013;-52
2023/05/14 09:28:55;;;;;;;5.82;4.18;;;25.90;62.90;;;;;;5089747;28;20366;-48
2023/05/14 09:31:20;;;;;;;4.38;3.63;;;26.20;60.20;;;;;;5110660;28;20020;-48
2023/05/14 09:33:53;;;;;;;4.28;3.88;;;27.40;61.40;;;;;;5112902;28;20015;-48
2023/05/14 09:36:20;;;;;;;6.75;3.83;;;28.60;57.30;;;;;;5094393;28;20020;-52
2023/05/14 09:38:48;;;;;;;6.05;4.28;;;28.80;56.60;;;;;;5094224;28;20024;-49
2023/05/14 09:41:24;;;;;;;5.00;4.30;;;28.50;55.50;;;;;;5111971;28;20020;-51
2023/05/14 09:43:50;;;;;;;11.48;3.95;;;28.00;54.50;;;;;;5112735;28;20569;-48
2023/05/14 09:46:16;;;;;;;5.93;3.55;;;27.20;52.50;;;;;;5112334;28;20106;-49
2023/05/14 09:48:42;;;;;;;8.25;4.05;;;26.60;53.50;;;;;;5112515;28;20393;-51
2023/05/14 09:51:11;;;;;;;5.70;3.95;;;26.30;52.90;;;;;;5112092;27;20023;-51
2023/05/14 09:53:38;;;;;;;7.57;3.55;;;26.60;52.50;;;;;;5096037;28;20508;-51
2023/05/14 09:56:06;;;;;;;5.85;3.50;;;27.40;54.10;;;;;;5101415;28;20608;-51
2023/05/14 09:58:32;;;;;;;4.13;3.60;;;28.80;50.10;;;;;;5091414;28;20143;-50
2023/05/14 10:01:00;;;;;;;8.07;3.72;;;29.70;49.40;;;;;;5097041;28;20030;-51
2023/05/14 10:03:29;;;;;;;5.13;3.33;;;30.10;46.80;;;;;;5110298;28;20028;-52
2023/05/14 10:06:05;;;;;;;6.60;3.25;;;30.60;47.20;;;;;;5111974;27;20023;-52
2023/05/14 10:08:37;;;;;;;4.05;2.90;;;32.00;46.10;;;;;;5100575;27;20139;-51
2023/05/14 10:11:07;;;;;;;5.93;3.47;;;32.50;45.60;;;;;;5091479;28;20031;-49
2023/05/14 10:13:40;;;;;;;6.00;3.65;;;33.30;43.90;;;;;;5092971;28;20114;-52
2023/05/14 10:16:49;;;;;;;7.63;3.50;;;33.30;42.60;;;;;;5112016;28;20019;-51
2023/05/14 10:19:17;;;;;;;5.35;3.13;;;33.30;40.90;;;;;;5123018;27;20039;-51
2023/05/14 10:21:47;;;;;;;4.55;3.70;;;32.70;42.60;;;;;;5111522;28;20024;-51
2023/05/14 10:24:17;;;;;;;7.10;3.78;;;33.00;41.10;;;;;;5093192;28;20565;-51
2023/05/14 10:26:44;;;;;;;6.82;3.35;;;33.30;42.60;;;;;;5090972;28;20521;-51
2023/05/14 10:29:12;;;;;;;6.88;3.22;;;33.50;41.10;;;;;;5091145;28;20021;-51
2023/05/14 10:31:54;;;;;;;6.00;3.25;;;32.70;41.50;;;;;;5102952;28;20012;-52
2023/05/14 10:34:42;;;;;;;4.28;3.10;;;33.90;41.10;;;;;;5110166;28;20046;-51
2023/05/14 10:37:27;;;;;;;4.15;3.20;;;34.40;40.60;;;;;;5111305;28;20476;-52
2023/05/14 10:39:58;;;;;;;4.55;3.33;;;34.00;40.80;;;;;;5109409;28;20028;-51
2023/05/14 10:42:39;;;;;;;7.45;2.88;;;34.20;41.00;;;;;;5126371;27;20114;-48
2023/05/14 10:45:07;;;;;;;5.22;3.92;;;34.50;43.50;;;;;;5109982;28;20443;-49
2023/05/14 10:47:38;;;;;;;5.20;3.40;;;30.70;41.60;;;;;;5109865;28;20115;-49
2023/05/14 10:50:09;;;;;;;9.43;4.10;;;31.60;43.40;;;;;;5111337;28;20051;-52
2023/05/14 10:52:35;;;;;;;6.28;3.53;;;31.60;43.10;;;;;;5105340;28;20111;-52
2023/05/14 10:55:06;;;;;;;5.78;3.88;;;31.90;41.90;;;;;;5090405;28;20608;-51
2023/05/14 10:57:39;;;;;;;10.98;4.05;;;30.80;42.00;;;;;;5100182;28;20435;-49
2023/05/14 11:00:07;;;;;;;6.47;3.55;;;31.80;43.10;;;;;;5109776;28;20019;-52
2023/05/14 11:02:38;;;;;;;6.63;4.00;;;33.10;42.40;;;;;;5109075;28;20039;-52
2023/05/14 11:05:15;;;;;;;5.88;3.97;;;32.60;40.80;;;;;;5110699;28;20015;-52
2023/05/14 11:07:45;;;;;;;9.48;3.55;;;32.30;42.90;;;;;;5092825;28;20358;-52
2023/05/14 11:10:13;;;;;;;7.10;3.58;;;31.90;42.70;;;;;;5109412;28;20015;-51
2023/05/14 11:12:40;;;;;;;6.72;3.83;;;31.50;42.60;;;;;;5109824;28;20069;-51
2023/05/14 11:15:09;;;;;;;6.15;3.53;;;31.60;42.30;;;;;;5110481;28;20024;-48
2023/05/14 11:17:35;;;;;;;5.63;3.33;;;31.80;42.60;;;;;;5110828;28;20385;-49
2023/05/14 11:20:01;;;;;;;5.47;3.28;;;32.40;43.60;;;;;;5110626;28;20023;-51
2023/05/14 11:22:27;;;;;;;4.93;3.50;;;33.50;43.10;;;;;;5108212;28;20020;-49
2023/05/14 11:24:53;;;;;;;7.05;3.40;;;34.00;44.00;;;;;;5089776;28;20050;-51
2023/05/14 11:27:20;;;;;;;5.53;3.92;;;34.70;40.80;;;;;;5098548;28;20094;-51
2023/05/14 11:29:47;;;;;;;4.63;4.13;;;34.90;42.30;;;;;;5110158;28;20113;-50
2023/05/14 11:32:14;;;;;;;6.32;3.38;;;35.20;40.40;;;;;;5109886;28;20491;-49
2023/05/14 11:34:40;;;;;;;6.85;3.30;;;34.80;41.40;;;;;;5110211;27;20028;-52
2023/05/14 11:37:07;;;;;;;8.13;3.90;;;33.40;38.40;;;;;;5110060;28;20084;-49
2023/05/14 11:39:36;;;;;;;3.95;3.40;;;32.40;42.70;;;;;;5110044;28;20059;-51
2023/05/14 11:42:03;;;;;;;5.07;3.10;;;32.50;41.90;;;;;;5109173;28;20016;-50
2023/05/14 11:44:28;;;;;;;6.93;3.13;;;33.60;41.00;;;;;;5109915;28;20028;-48
2023/05/14 11:46:55;;;;;;;5.68;3.38;;;32.20;38.50;;;;;;5109815;28;20526;-48
2023/05/14 11:49:22;;;;;;;8.57;3.53;;;31.10;41.40;;;;;;5110041;28;20023;-51
2023/05/14 11:51:48;;;;;;;4.53;3.53;;;30.40;41.30;;;;;;5108601;28;20571;-48
2023/05/14 11:54:14;;;;;;;4.35;3.83;;;29.70;42.90;;;;;;5092962;28;20103;-48
2023/05/14 11:56:41;;;;;;;5.03;3.85;;;28.70;44.30;;;;;;5095109;28;20059;-48
2023/05/14 11:59:09;;;;;;;7.50;3.75;;;28.00;44.80;;;;;;5089635;28;20026;-48
2023/05/14 12:01:36;;;;;;;4.65;4.00;;;27.30;45.10;;;;;;5108774;28;20015;-47
2023/05/14 12:04:03;;;;;;;6.03;3.70;;;26.40;46.50;;;;;;5108326;28;20043;-49
2023/05/14 12:06:32;;;;;;;5.28;3.47;;;25.90;49.10;;;;;;5109637;28;20016;-49
2023/05/14 12:08:59;;;;;;;7.72;4.55;;;25.80;48.70;;;;;;5109655;28;20015;-48
2023/05/14 12:11:29;;;;;;;4.53;3.30;;;25.60;48.40;;;;;;5108704;28;20016;-48
2023/05/14 12:13:54;;;;;;;11.23;3.83;;;25.50;50.90;;;;;;5109586;28;20020;-47
2023/05/14 12:16:20;;;;;;;5.72;3.72;;;25.50;47.60;;;;;;5109923;28;20030;-51
2023/05/14 12:18:46;;;;;;;10.48;3.95;;;24.90;47.60;;;;;;5108369;28;20047;-51
2023/05/14 12:21:12;;;;;;;4.22;3.60;;;25.30;47.80;;;;;;5100450;28;20030;-50
2023/05/14 12:23:41;;;;;;;4.00;3.60;;;25.30;49.50;;;;;;5109343;28;20061;-49
2023/05/14 12:26:12;;;;;;;3.85;3.50;;;25.60;48.80;;;;;;5095072;28;20035;-50
2023/05/14 12:28:42;;;;;;;5.47;3.65;;;26.10;50.60;;;;;;5087558;28;20051;-47
2023/05/14 12:31:07;;;;;;;6.73;3.87;;;26.70;49.20;;;;;;5091361;28;20017;-47
2023/05/14 12:33:33;;;;;;;7.82;4.28;;;27.10;48.80;;;;;;5084628;28;20028;-50
2023/05/14 12:36:03;;;;;;;7.55;3.83;;;27.30;49.80;;;;;;5084645;28;20035;-51
2023/05/14 12:38:30;;;;;;;7.72;4.00;;;26.50;49.00;;;;;;5098866;28;20026;-50
2023/05/14 12:40:56;;;;;;;10.90;3.95;;;26.00;48.70;;;;;;5095270;28;20031;-50
2023/05/14 12:43:30;;;;;;;6.93;3.90;;;25.10;49.70;;;;;;5088088;28;20035;-50
2023/05/14 12:45:55;;;;;;;11.57;5.30;;;24.50;51.20;;;;;;5088212;28;20022;-47